Aktualne dane pomiarowe

Uwaga, wersja testowa! Automatyczne pobieranie danych za pomocą narzędzi lub skryptów to umożliwiających jest zabronione.

Dane meteo z obszaru Polski uzyskane na podstawie depesz SYNOP pobieranych co godzinę z NWS. Najedź myszką na symbol przedstawiony w tabeli, aby uzyskać informacje co do jego znaczenia. Prosimy pamiętać, że to testowa wersja strony, która jeszcze nie jest ukończona. Stworzono również jest krótki FAQ dotyczący korzystania z tej podstrony Anomalie temperatury w chwili obecnej odniesione są do okresu referencyjnego 1951-2016. Okres ten będzie później zmieniony na 1981-2010. Kliknij ikonę aby pobrać plik CSV. Kliknij ikonę aby wygenerować mapę synoptyczną dla danego terminu.

Wybierz Datę:    

        

Łęczyca (12452)

Dane terminowe dla wybranej stacji. Kliknij datę, aby otrzymać dane z tego terminu dla wszystkich stacji.

TemperaturaZachmurzenieWiatrCiśnienieOpadyPogoda
 Data t td wb tx tn tg rh  Nt Nl Cl Cm Ch ws wd g1 g2 wx mslp ppp ch 24h 12h t ww ww w1 w2  
2019-07-07 23:00:00 13.5 10.1 11.3--- 8010.0wxwxwxwx4wx---1010.6 995.9 0.9---wx---
2019-07-07 22:00:00 14.2 8.8 10.9--- 7010.0wxwxwxwx3wx---1010.2 995.6 1.2---------
2019-07-07 21:00:00 13.0 8.3 10.1--- 7310.0wx-wx3wx---1009.8 995.2 1.1---------
2019-07-07 20:00:00 15.1 7.9 10.8--- 6210.0wx-wx5wx---1009.6 995.0 1.9---------
2019-07-07 19:00:00 15.9 7.7 11.1--- 5810.0wxwxwxwx6wx---1009.0 994.4 1.1---------
2019-07-07 18:00:00 16.7 7.4 11.4--- 5410.0wxwxwxwxwx5wx---1008.7 994.1 0.9---------
2019-07-07 17:00:00 17.9 7.1 11.8--- 4910.0wxwxwx6wx---1007.6 993.0 -0.5---------
2019-07-07 16:00:00 18.3 7.1 12.0--- 4810.0wxwxwx7wx---1008.1 993.5 0.1---------
2019-07-07 15:00:00 18.4 6.6 11.8--- 4610.0wxwxwx7wx---1007.8 993.2 0.2---------
2019-07-07 14:00:00 18.6 6.1 11.7--- 4410.0wxwxwx7wx---1008.0 993.4 0.5---------
2019-07-07 13:00:00 18.8 6.6 12.0--- 4510.0wxwxwx7wx---1008.0 993.4 0.7---------
2019-07-07 12:00:00 19.5 6.6 12.3--- 4310.0wxwxwx7wx---1007.6 993.0 0.5---------
2019-07-07 11:00:00 18.2 7.3 12.0--- 4910.0wxwxwx7wx---1007.5 992.9 0.8---------
2019-07-07 10:00:00 17.8 7.6 12.0--- 5110.0wxwxwx7wx---- 992.6 0.5---------
2019-07-07 09:00:00 16.3 9.0 11.9--- 6210.0wxwxwx6wx---1007.1 992.5 0.8---------
2019-07-07 08:00:00 16.0 10.3 12.4--- 6910.0wxwxwxwx4wx---1006.7 992.1 0.5---------
2019-07-07 07:00:00 14.2 10.8 12.0--- 8010.0wxwxwx4wx---1006.8 992.2 1.0---------
2019-07-07 06:00:00 14.1 12.5 13.0--- 9010.0wxwxwx4wx---1006.7 991.8 0.8---wx-w1w2--
2019-07-07 05:00:00 14.1 12.8 13.2--- 9210.0wxwxwx4wx---1006.5 991.6 0.3---wx-w1w2--
2019-07-07 04:00:00 14.6 13.2 13.6--- 9110.0wxwxwx4wx---1006.2 991.2 -0.2---wx-w1w2--
2019-07-07 03:00:00 15.4 14.1 14.5--- 928.0wxwxwx3wx---1005.8 991.0 -0.7---wx-w1w2--
2019-07-07 02:00:00 16.1 13.7 14.4--- 8610.0wxwxwxwx3wx---1006.3 991.4 -0.9---wx---
2019-07-07 01:00:00 16.2 13.7 14.5--- 8510.0wxwxwxwx1----1006.3 991.4 -0.7---------
2019-07-07 00:00:00 16.2 14.0 14.7--- 8710.0wxwxwx1----1006.5 991.6 -0.2---wx-w2--
2019-07-06 23:00:00 16.4 14.2 14.9--- 8710.0wxwxwx1----1007.2 992.3 0.1---wx---
2019-07-06 22:00:00 16.5 14.3 15.0--- 8710.0wxwxwxwx1----1006.9 992.1 -0.2---------
2019-07-06 21:00:00 16.9 13.7 14.7--- 8110.0wxwxwxwx1----1006.6 991.9 -0.4---------
2019-07-06 20:00:00 17.2 14.1 15.1--- 8210.0wxwxwxwx1----1006.9 992.2 0.1---------
2019-07-06 19:00:00 17.8 14.3 15.4--- 8010.0wxwxwxwx1wx---1006.8 992.1 -0.3---wx-w2--
2019-07-06 18:00:00 18.8 13.4 15.3--- 7110.0wxwxwxwx1wx---1007.0 992.3 -0.7---wx---
2019-07-06 17:00:00 20.1 12.1 15.1--- 6010.0wx-wx2wx---1006.7 992.1 -1.9---------
2019-07-06 16:00:00 20.7 11.4 15.0--- 5510.0wx-wx2wx---1007.0 992.4 -2.1---------
2019-07-06 15:00:00 20.8 11.7 15.2--- 5610.0wxwxwxwx2wx---1007.6 993.0 -1.4---wx---
2019-07-06 14:00:00 20.8 11.7 15.2--- 5610.0wxwxwxwx3wx---1008.6 994.0 -0.8---wx-w2--
2019-07-06 13:00:00 19.5 12.5 15.1--- 6410.0wxwxwxwx4wx---1009.0 994.4 -0.8---wx---
2019-07-06 12:00:00 21.4 11.2 15.2--- 5210.0wxwxwxwx5wx---1009.0 994.4 -1.3---------
2019-07-06 11:00:00 21.2 11.0 15.0--- 5210.0wxwxwxwx4wx---1009.4 994.9 -1.0---------
2019-07-06 10:00:00 20.1 11.3 14.7--- 5710.0wxwxwxwx5wx---1010.0 995.3 -1.2---------
2019-07-06 09:00:00 18.6 11.9 14.4--- 6510.0wxwxwx4wx---1010.5 995.7 -1.1---------
2019-07-06 08:00:00 18.4 12.2 14.4--- 6710.0wxwxwxwx3wx---1010.6 995.8 -1.1---------
2019-07-06 07:00:00 16.8 12.2 13.8--- 7410.0wxwxwx3wx---1011.3 996.5 -0.6---------
2019-07-06 06:00:00 15.8 12.0 13.3--- 7810.0wxwxwx3wx---1012.1 996.7 -0.6---------
2019-07-06 05:00:00 15.2 12.2 13.2--- 8210.0wxwxwx2wx---1012.4 997.0 -0.3---------
2019-07-06 04:00:00 14.4 11.8 12.6--- 8410.0wxwxwx2wx---1012.5 997.1 -0.3---------
2019-07-06 03:00:00 13.7 11.3 12.1--- 8510.0wxwxwx1wx---1012.8 997.3 -0.4---------
2019-07-06 02:00:00 13.7 11.1 11.9--- 8410.0wxwxwx2wx---1012.8 997.3 -0.4---------
2019-07-06 01:00:00 13.4 10.8 11.7--- 8410.0wxwxwxwx2wx---1013.0 997.5 -0.1---------
2019-07-06 00:00:00 13.5 10.9 11.7--- 8410.0wxwxwxwx2wx---1013.2 997.7 0.2---------
15.3 ms

 

Print Friendly, PDF & Email